createdAt,value
2018-03-07T00:01:42.620Z,11.69
2018-03-07T00:04:11.056Z,11.33
2018-03-07T00:06:39.533Z,11.14
2018-03-07T00:09:07.933Z,11.23
2018-03-07T00:11:36.356Z,11.06
2018-03-07T00:14:04.776Z,11.12
2018-03-07T00:16:33.183Z,11.01
2018-03-07T00:19:01.941Z,11.02
2018-03-07T00:21:30.335Z,11.28
2018-03-07T00:23:58.749Z,11.59
2018-03-07T00:26:27.155Z,11.51
2018-03-07T00:28:55.546Z,11.93
2018-03-07T00:31:24.022Z,12.08
2018-03-07T00:33:52.425Z,12.20
2018-03-07T00:36:20.839Z,12.38
2018-03-07T00:38:49.248Z,12.39
2018-03-07T00:41:17.836Z,12.21
2018-03-07T00:43:46.261Z,12.32
2018-03-07T00:46:14.683Z,12.33
2018-03-07T00:48:43.084Z,12.09
2018-03-07T00:51:11.584Z,12.13
2018-03-07T00:53:40.062Z,12.13
2018-03-07T00:56:08.481Z,11.94
2018-03-07T00:58:36.888Z,12.34
2018-03-07T01:01:05.299Z,12.21
2018-03-07T01:03:33.701Z,12.24
2018-03-07T01:06:02.280Z,12.09
2018-03-07T01:08:30.692Z,12.42
2018-03-07T01:10:59.207Z,12.54
2018-03-07T01:13:27.625Z,12.65
2018-03-07T01:15:56.172Z,12.72
2018-03-07T01:18:24.592Z,12.77
2018-03-07T01:20:53.104Z,12.95
2018-03-07T01:23:21.514Z,12.87
2018-03-07T01:25:50.048Z,12.89
2018-03-07T01:28:18.459Z,12.62
2018-03-07T01:30:47.103Z,12.74
2018-03-07T01:33:15.516Z,12.60
2018-03-07T01:35:43.939Z,12.52
2018-03-07T01:38:12.349Z,12.46
2018-03-07T01:40:40.756Z,12.48
2018-03-07T01:43:09.241Z,12.38
2018-03-07T01:45:37.633Z,12.39
2018-03-07T01:48:06.043Z,12.47
2018-03-07T01:50:34.545Z,12.37
2018-03-07T01:53:02.940Z,11.64
2018-03-07T01:55:31.464Z,11.73
2018-03-07T01:57:59.883Z,11.65
2018-03-07T02:00:28.307Z,11.79
2018-03-07T02:02:56.720Z,11.52
2018-03-07T02:05:25.119Z,11.67
2018-03-07T02:07:53.635Z,11.91
2018-03-07T02:12:55.712Z,11.87
2018-03-07T02:15:24.120Z,11.69
2018-03-07T02:17:52.527Z,11.56
2018-03-07T02:20:20.943Z,11.84
2018-03-07T02:22:49.348Z,11.62
2018-03-07T02:25:17.796Z,11.53
2018-03-07T02:27:47.224Z,12.01
2018-03-07T02:30:15.644Z,12.05
2018-03-07T02:32:44.091Z,11.42
2018-03-07T02:35:12.501Z,11.93
2018-03-07T02:37:40.975Z,12.37
2018-03-07T02:40:09.403Z,12.73
2018-03-07T02:42:37.816Z,12.63
2018-03-07T02:45:06.224Z,12.56
2018-03-07T02:47:34.635Z,12.72
2018-03-07T02:50:03.182Z,12.49
2018-03-07T02:52:31.604Z,12.81
2018-03-07T02:55:00.025Z,12.99
2018-03-07T02:57:28.444Z,12.86
2018-03-07T02:59:56.902Z,12.58
2018-03-07T03:02:25.378Z,12.91
2018-03-07T03:04:53.855Z,12.87
2018-03-07T03:07:22.272Z,12.68
2018-03-07T03:09:50.696Z,12.85
2018-03-07T03:12:19.090Z,12.40
2018-03-07T03:14:47.560Z,11.61
2018-03-07T03:17:15.988Z,12.23
2018-03-07T03:19:44.468Z,12.44
2018-03-07T03:22:12.882Z,11.84
2018-03-07T03:24:41.295Z,12.10
2018-03-07T03:27:09.770Z,12.09
2018-03-07T03:29:38.183Z,12.46
2018-03-07T03:32:06.596Z,11.55
2018-03-07T03:34:35.007Z,12.28
2018-03-07T03:37:03.415Z,12.63
2018-03-07T03:39:31.887Z,12.49
2018-03-07T03:42:00.286Z,12.55
2018-03-07T03:44:28.738Z,12.03
2018-03-07T03:46:57.143Z,12.09
2018-03-07T03:49:25.580Z,11.77
2018-03-07T03:51:54.001Z,12.53
2018-03-07T03:54:22.404Z,12.34
2018-03-07T03:56:51.204Z,12.69
2018-03-07T03:59:19.615Z,12.33
2018-03-07T04:01:48.110Z,12.61
2018-03-07T04:04:16.517Z,12.72
2018-03-07T04:06:44.919Z,12.88
2018-03-07T04:09:13.315Z,12.96
2018-03-07T04:11:41.717Z,12.97
2018-03-07T04:14:10.156Z,11.81
2018-03-07T04:16:38.564Z,12.68
2018-03-07T04:19:06.954Z,12.00
2018-03-07T04:21:35.381Z,12.21
2018-03-07T04:24:03.766Z,11.70
2018-03-07T04:26:32.199Z,11.86
2018-03-07T04:29:00.591Z,11.73
2018-03-07T04:31:29.046Z,12.40
2018-03-07T04:33:57.535Z,12.60
2018-03-07T04:36:25.958Z,12.64
2018-03-07T04:38:54.347Z,12.53
2018-03-07T04:41:22.741Z,12.77
2018-03-07T04:43:51.135Z,12.80
2018-03-07T04:46:19.675Z,12.97
2018-03-07T04:48:48.092Z,12.82
2018-03-07T04:51:16.825Z,12.23
2018-03-07T04:53:45.234Z,12.92
2018-03-07T04:56:13.618Z,12.87
2018-03-07T04:58:42.069Z,12.32
2018-03-07T05:01:10.547Z,11.94
2018-03-07T05:03:38.940Z,11.30
2018-03-07T05:06:07.361Z,12.06
2018-03-07T05:08:35.768Z,11.87
2018-03-07T05:11:04.232Z,11.74
2018-03-07T05:13:32.748Z,11.63
2018-03-07T05:16:01.157Z,11.93
2018-03-07T05:18:30.284Z,12.37
2018-03-07T05:20:58.823Z,12.49
2018-03-07T05:23:27.227Z,12.69
2018-03-07T05:25:55.638Z,12.37
2018-03-07T05:28:24.036Z,12.08
2018-03-07T05:30:52.512Z,12.37
2018-03-07T05:33:21.056Z,12.63
2018-03-07T05:35:49.459Z,12.58
2018-03-07T05:38:17.868Z,12.84
2018-03-07T05:40:46.251Z,12.64
2018-03-07T05:43:14.663Z,12.57
2018-03-07T05:45:43.128Z,12.48
2018-03-07T05:48:11.529Z,12.74
2018-03-07T05:50:39.948Z,12.71
2018-03-07T05:53:08.330Z,12.28
2018-03-07T05:55:36.702Z,11.39
2018-03-07T05:58:05.156Z,11.76
2018-03-07T06:00:33.646Z,12.15
2018-03-07T06:03:02.059Z,12.58
2018-03-07T06:05:30.611Z,12.49
2018-03-07T06:07:59.016Z,12.57
2018-03-07T06:10:27.464Z,12.51
2018-03-07T06:12:55.969Z,12.58
2018-03-07T06:15:24.391Z,12.67
2018-03-07T06:17:52.825Z,12.61
2018-03-07T06:20:21.232Z,12.20
2018-03-07T06:22:50.022Z,12.50
2018-03-07T06:25:18.385Z,12.74
2018-03-07T06:27:46.859Z,12.71
2018-03-07T06:30:15.274Z,11.97
2018-03-07T06:32:43.680Z,12.02
2018-03-07T06:35:12.142Z,11.69
2018-03-07T06:37:40.544Z,11.23
2018-03-07T06:40:08.960Z,11.49
2018-03-07T06:42:37.361Z,10.89
2018-03-07T06:45:05.811Z,10.05
2018-03-07T06:47:34.227Z,11.73
2018-03-07T06:50:02.635Z,11.02
2018-03-07T06:52:31.045Z,10.93
2018-03-07T06:54:59.501Z,11.94
2018-03-07T06:57:28.026Z,11.43
2018-03-07T06:59:59.182Z,11.70
2018-03-07T07:02:27.644Z,12.11
2018-03-07T07:04:56.118Z,12.14
2018-03-07T07:07:25.581Z,12.65
2018-03-07T07:09:54.053Z,11.68
2018-03-07T07:12:22.458Z,12.02
2018-03-07T07:14:50.976Z,12.59
2018-03-07T07:17:22.573Z,12.40
2018-03-07T07:19:51.083Z,11.70
2018-03-07T07:22:19.614Z,11.80
2018-03-07T07:24:48.162Z,11.67
2018-03-07T07:27:16.548Z,12.01
2018-03-07T07:29:45.018Z,11.72
2018-03-07T07:32:13.435Z,11.33
2018-03-07T07:34:41.914Z,11.42
2018-03-07T07:37:10.322Z,10.93
2018-03-07T07:39:38.725Z,10.79
2018-03-07T07:42:07.118Z,11.48
2018-03-07T07:44:35.516Z,10.99
2018-03-07T07:47:03.918Z,11.14
2018-03-07T07:49:32.297Z,11.03
2018-03-07T07:52:00.877Z,10.97
2018-03-07T07:54:29.332Z,10.98
2018-03-07T07:56:57.702Z,11.30
2018-03-07T07:59:26.122Z,11.76
2018-03-07T08:01:54.612Z,11.87
2018-03-07T08:04:22.988Z,12.35
2018-03-07T08:06:51.357Z,12.66
2018-03-07T08:09:19.766Z,12.09
2018-03-07T08:11:48.159Z,12.48
2018-03-07T08:14:16.595Z,12.22
2018-03-07T08:16:45.003Z,12.96
2018-03-07T08:19:13.550Z,13.05
2018-03-07T08:21:42.024Z,14.55
2018-03-07T08:24:10.431Z,14.89
2018-03-07T08:26:38.831Z,15.79
2018-03-07T08:29:07.236Z,15.28
2018-03-07T08:31:35.688Z,14.69
2018-03-07T08:34:04.084Z,15.17
2018-03-07T08:36:32.507Z,15.96
2018-03-07T08:39:00.912Z,15.89
2018-03-07T08:41:29.321Z,19.16
2018-03-07T08:43:57.721Z,19.45
2018-03-07T08:46:26.201Z,22.01
2018-03-07T08:48:54.665Z,22.98
2018-03-07T08:51:23.088Z,21.88
2018-03-07T08:53:51.494Z,21.15
2018-03-07T08:56:19.862Z,21.89
2018-03-07T08:58:48.277Z,23.32
2018-03-07T09:01:16.875Z,23.91
2018-03-07T09:03:45.979Z,22.16
2018-03-07T09:06:14.405Z,22.49
2018-03-07T09:08:42.814Z,22.63
2018-03-07T09:11:11.219Z,22.47
2018-03-07T09:13:39.667Z,22.06
2018-03-07T09:16:08.096Z,22.40
2018-03-07T09:18:36.578Z,22.87
2018-03-07T09:21:04.959Z,21.56
2018-03-07T09:23:33.350Z,20.26
2018-03-07T09:26:01.840Z,20.86
2018-03-07T09:28:30.236Z,19.85
2018-03-07T09:30:58.676Z,21.55
2018-03-07T09:33:27.128Z,19.97
2018-03-07T09:35:55.544Z,21.08
2018-03-07T09:38:24.040Z,21.86
2018-03-07T09:40:52.451Z,21.69
2018-03-07T09:43:20.928Z,19.03
2018-03-07T09:45:49.351Z,17.52
2018-03-07T09:48:17.748Z,15.91
2018-03-07T09:50:46.155Z,16.54
2018-03-07T09:53:14.556Z,17.77
2018-03-07T09:55:43.389Z,18.36
2018-03-07T09:58:11.804Z,19.24
2018-03-07T10:00:40.248Z,19.10
2018-03-07T10:03:08.648Z,19.62
2018-03-07T10:05:37.208Z,20.31
2018-03-07T10:08:05.617Z,19.71
2018-03-07T10:10:33.996Z,18.84
2018-03-07T10:13:02.386Z,17.85
2018-03-07T10:15:30.846Z,17.82
2018-03-07T10:17:59.319Z,17.73
2018-03-07T10:20:27.764Z,17.02
2018-03-07T10:22:56.347Z,16.34
2018-03-07T10:25:24.722Z,16.00
2018-03-07T10:27:53.209Z,15.68
2018-03-07T10:30:21.612Z,14.52
2018-03-07T10:32:50.010Z,15.14
2018-03-07T10:35:18.415Z,14.26
2018-03-07T10:37:46.954Z,14.70
2018-03-07T10:40:15.398Z,14.68
2018-03-07T10:42:43.791Z,14.31
2018-03-07T10:45:12.264Z,15.39
2018-03-07T10:47:40.660Z,17.61
2018-03-07T10:50:09.048Z,18.58
2018-03-07T10:52:37.456Z,19.07
2018-03-07T10:55:06.002Z,19.24
2018-03-07T10:57:34.440Z,18.68
2018-03-07T11:00:02.856Z,17.58
2018-03-07T11:02:31.365Z,16.84
2018-03-07T11:04:59.805Z,15.56
2018-03-07T11:07:28.338Z,14.91
2018-03-07T11:09:56.706Z,15.09
2018-03-07T11:12:25.078Z,15.31
2018-03-07T11:14:53.587Z,14.74
2018-03-07T11:17:21.992Z,14.72
2018-03-07T11:19:50.412Z,14.47
2018-03-07T11:22:18.809Z,14.00
2018-03-07T11:24:47.232Z,14.04
2018-03-07T11:27:15.696Z,14.13
2018-03-07T11:29:44.100Z,14.75
2018-03-07T11:32:12.531Z,14.58
2018-03-07T11:34:41.006Z,14.82
2018-03-07T11:37:09.403Z,15.40
2018-03-07T11:39:37.873Z,16.11
2018-03-07T11:42:06.271Z,15.34
2018-03-07T11:44:34.771Z,15.09
2018-03-07T11:47:03.253Z,14.57
2018-03-07T11:49:31.643Z,13.68
2018-03-07T11:52:00.084Z,13.53
2018-03-07T11:54:28.492Z,13.70
2018-03-07T11:56:57.044Z,13.21
2018-03-07T11:59:25.432Z,13.88
2018-03-07T12:01:53.931Z,13.56
2018-03-07T12:04:22.346Z,14.38
2018-03-07T12:06:50.737Z,15.17
2018-03-07T12:09:19.152Z,15.00
2018-03-07T12:11:47.589Z,15.21
2018-03-07T12:14:16.122Z,15.19
2018-03-07T12:16:44.518Z,14.75
2018-03-07T12:19:12.938Z,15.47
2018-03-07T12:21:41.371Z,15.97
2018-03-07T12:24:09.894Z,17.30
2018-03-07T12:26:38.343Z,16.54
2018-03-07T12:29:06.720Z,15.19
2018-03-07T12:31:35.095Z,15.56
2018-03-07T12:34:03.473Z,15.73
2018-03-07T12:36:31.867Z,14.66
2018-03-07T12:39:00.341Z,14.49
2018-03-07T12:41:28.861Z,14.53
2018-03-07T12:43:57.297Z,14.40
2018-03-07T12:46:25.743Z,14.81
2018-03-07T12:48:54.240Z,15.41
2018-03-07T12:51:22.736Z,14.44
2018-03-07T12:53:51.153Z,13.90
2018-03-07T12:56:19.729Z,14.06
2018-03-07T12:58:48.208Z,13.99
2018-03-07T13:01:16.607Z,13.79
2018-03-07T13:03:44.994Z,13.20
2018-03-07T13:06:13.392Z,13.45
2018-03-07T13:08:42.025Z,13.93
2018-03-07T13:11:10.431Z,13.77
2018-03-07T13:13:38.816Z,14.09
2018-03-07T13:16:07.209Z,14.12
2018-03-07T13:18:35.626Z,15.00
2018-03-07T13:21:04.080Z,14.87
2018-03-07T13:23:32.497Z,14.19
2018-03-07T13:26:00.943Z,13.94
2018-03-07T13:28:29.356Z,13.29
2018-03-07T13:30:57.768Z,13.99
2018-03-07T13:33:26.188Z,14.37
2018-03-07T13:35:54.608Z,14.39
2018-03-07T13:38:23.083Z,14.42
2018-03-07T13:40:51.506Z,14.49
2018-03-07T13:43:19.901Z,14.68
2018-03-07T13:45:48.296Z,14.78
2018-03-07T13:48:16.659Z,13.65
2018-03-07T13:50:45.088Z,13.92
2018-03-07T13:53:13.452Z,13.58
2018-03-07T13:55:41.828Z,14.00
2018-03-07T13:58:10.210Z,13.14
2018-03-07T14:00:38.633Z,12.97
2018-03-07T14:03:07.043Z,12.75
2018-03-07T14:05:35.447Z,12.70
2018-03-07T14:08:03.846Z,13.14
2018-03-07T14:10:32.297Z,13.46
2018-03-07T14:13:00.716Z,13.32
2018-03-07T14:15:29.158Z,13.03
2018-03-07T14:17:57.528Z,13.29
2018-03-07T14:20:25.926Z,12.81
2018-03-07T14:22:54.276Z,12.08
2018-03-07T14:25:22.643Z,12.02
2018-03-07T14:27:51.308Z,12.26
2018-03-07T14:30:19.670Z,12.02
2018-03-07T14:32:48.035Z,12.14
2018-03-07T14:35:16.462Z,12.80
2018-03-07T14:37:44.885Z,12.33
2018-03-07T14:40:13.382Z,12.78
2018-03-07T14:42:41.749Z,11.42
2018-03-07T14:45:10.123Z,12.11
2018-03-07T14:47:38.507Z,12.74
2018-03-07T14:50:08.417Z,11.92
2018-03-07T14:52:37.027Z,12.10
2018-03-07T14:55:05.698Z,11.80
2018-03-07T14:57:34.090Z,11.73
2018-03-07T15:00:02.566Z,12.28
2018-03-07T15:02:30.990Z,11.66
2018-03-07T15:05:00.610Z,11.30
2018-03-07T15:07:30.796Z,11.70
2018-03-07T15:09:59.399Z,11.15
2018-03-07T15:12:28.055Z,11.55
2018-03-07T15:14:56.457Z,11.41
2018-03-07T15:17:24.941Z,11.09
2018-03-07T15:19:53.381Z,11.26
2018-03-07T15:22:21.780Z,11.78
2018-03-07T15:24:50.196Z,12.22
2018-03-07T15:27:18.773Z,11.77
2018-03-07T15:29:47.256Z,12.10
2018-03-07T15:32:16.791Z,12.32
2018-03-07T15:34:45.573Z,12.50
2018-03-07T15:37:13.991Z,11.98
2018-03-07T15:39:42.441Z,12.33
2018-03-07T15:42:10.896Z,12.08
2018-03-07T15:44:39.481Z,12.50
2018-03-07T15:47:07.939Z,11.53
2018-03-07T15:49:36.387Z,11.99
2018-03-07T15:52:04.756Z,11.15
2018-03-07T15:54:33.359Z,10.89
2018-03-07T15:57:01.747Z,11.57
2018-03-07T15:59:30.200Z,11.46
2018-03-07T16:01:58.695Z,11.25
2018-03-07T16:04:27.127Z,11.31
2018-03-07T16:06:55.667Z,12.01
2018-03-07T16:09:24.173Z,11.45
2018-03-07T16:11:52.604Z,12.06
2018-03-07T16:14:21.182Z,12.43
2018-03-07T16:16:49.582Z,12.22
2018-03-07T16:19:18.070Z,12.45
2018-03-07T16:21:46.442Z,12.17
2018-03-07T16:24:14.826Z,12.59
2018-03-07T16:26:43.253Z,12.03
2018-03-07T16:29:11.705Z,12.03
2018-03-07T16:31:40.136Z,12.12
2018-03-07T16:34:08.748Z,12.74
2018-03-07T16:36:37.420Z,12.80
2018-03-07T16:39:05.887Z,11.77
2018-03-07T16:41:34.484Z,10.82
2018-03-07T16:44:03.496Z,11.61
2018-03-07T16:46:31.854Z,11.72
2018-03-07T16:49:00.384Z,11.50
2018-03-07T16:51:28.775Z,11.50
2018-03-07T16:53:57.568Z,10.56
2018-03-07T16:56:26.276Z,10.30
2018-03-07T16:58:54.692Z,11.28
2018-03-07T17:01:23.096Z,10.97
2018-03-07T17:03:51.480Z,11.25
2018-03-07T17:06:19.967Z,11.51
2018-03-07T17:08:50.760Z,11.25
2018-03-07T17:11:20.226Z,11.27
2018-03-07T17:13:48.746Z,11.09
2018-03-07T17:16:17.158Z,10.78
2018-03-07T17:18:45.543Z,11.00
2018-03-07T17:21:13.911Z,10.52
2018-03-07T17:23:42.270Z,11.70
2018-03-07T17:26:10.749Z,11.97
2018-03-07T17:31:12.840Z,11.09
2018-03-07T17:33:41.219Z,10.80
2018-03-07T17:36:09.584Z,10.79
2018-03-07T17:38:38.000Z,10.46
2018-03-07T17:41:06.445Z,9.96
2018-03-07T17:43:34.923Z,10.79
2018-03-07T17:46:03.313Z,10.35
2018-03-07T17:48:31.690Z,10.18
2018-03-07T17:51:00.094Z,10.46
2018-03-07T17:53:28.490Z,11.27
2018-03-07T17:55:56.962Z,10.57
2018-03-07T17:58:25.352Z,11.24
2018-03-07T18:00:53.791Z,10.20
2018-03-07T18:03:22.180Z,10.72
2018-03-07T18:05:50.575Z,11.10
2018-03-07T18:08:18.972Z,10.61
2018-03-07T18:10:47.343Z,11.06
2018-03-07T18:13:15.792Z,10.54
2018-03-07T18:15:44.189Z,10.11
2018-03-07T18:18:12.540Z,10.86
2018-03-07T18:20:40.927Z,10.21
2018-03-07T18:23:09.336Z,10.96
2018-03-07T18:25:37.965Z,10.74
2018-03-07T18:28:06.473Z,11.34
2018-03-07T18:30:34.883Z,10.43
2018-03-07T18:33:03.280Z,11.14
2018-03-07T18:35:31.670Z,11.38
2018-03-07T18:38:00.302Z,11.52
2018-03-07T18:40:29.394Z,10.41
2018-03-07T18:42:57.771Z,10.71
2018-03-07T18:45:26.216Z,10.81
2018-03-07T18:47:54.574Z,10.35
2018-03-07T18:50:22.966Z,11.28
2018-03-07T18:52:51.335Z,10.71
2018-03-07T18:55:19.821Z,10.50
2018-03-07T18:57:48.175Z,10.56
2018-03-07T19:00:16.547Z,10.04
2018-03-07T19:02:44.967Z,10.00
2018-03-07T19:05:13.337Z,10.70
2018-03-07T19:07:41.984Z,10.71
2018-03-07T19:10:10.431Z,10.37
2018-03-07T19:12:38.928Z,11.30
2018-03-07T19:15:07.370Z,10.25
2018-03-07T19:17:35.790Z,11.00
2018-03-07T19:20:04.730Z,11.14
2018-03-07T19:22:33.109Z,11.33
2018-03-07T19:25:01.545Z,11.01
2018-03-07T19:27:29.942Z,10.44
2018-03-07T19:29:58.351Z,10.40
2018-03-07T19:32:26.829Z,10.98
2018-03-07T19:34:55.235Z,10.88
2018-03-07T19:37:23.611Z,10.30
2018-03-07T19:39:51.984Z,10.80
2018-03-07T19:42:20.407Z,10.89
2018-03-07T19:44:48.807Z,10.38
2018-03-07T19:47:17.208Z,10.76
2018-03-07T19:49:45.676Z,10.72
2018-03-07T19:52:14.108Z,11.09
2018-03-07T19:54:42.665Z,10.89
2018-03-07T19:57:11.061Z,10.92
2018-03-07T19:59:39.572Z,10.40
2018-03-07T20:02:08.000Z,10.67
2018-03-07T20:04:36.429Z,10.05
2018-03-07T20:07:04.865Z,10.03
2018-03-07T20:09:33.251Z,10.10
2018-03-07T20:12:01.683Z,10.46
2018-03-07T20:14:30.250Z,10.33
2018-03-07T20:16:58.719Z,10.98
2018-03-07T20:19:27.159Z,9.93
2018-03-07T20:21:55.671Z,10.19
2018-03-07T20:24:24.158Z,10.55
2018-03-07T20:26:52.559Z,10.16
2018-03-07T20:29:21.108Z,9.90
2018-03-07T20:31:49.559Z,11.01
2018-03-07T20:34:17.992Z,9.85
2018-03-07T20:36:46.434Z,9.72
2018-03-07T20:39:14.852Z,10.50
2018-03-07T20:41:43.352Z,11.19
2018-03-07T20:44:11.761Z,9.99
2018-03-07T20:46:40.227Z,10.54
2018-03-07T20:49:08.595Z,10.29
2018-03-07T20:51:36.990Z,10.05
2018-03-07T20:54:05.377Z,9.41
2018-03-07T20:56:33.787Z,9.39
2018-03-07T20:59:02.329Z,9.47
2018-03-07T21:01:30.732Z,9.92
2018-03-07T21:03:59.654Z,9.73
2018-03-07T21:06:28.020Z,9.45
2018-03-07T21:08:56.440Z,9.86
2018-03-07T21:11:24.986Z,10.15
2018-03-07T21:13:53.421Z,9.55
2018-03-07T21:16:21.888Z,10.40
2018-03-07T21:18:50.309Z,9.86
2018-03-07T21:21:18.689Z,9.82
2018-03-07T21:23:47.096Z,9.90
2018-03-07T21:26:15.499Z,9.09
2018-03-07T21:28:43.929Z,9.26
2018-03-07T21:31:12.335Z,9.11
2018-03-07T21:33:41.123Z,8.99
2018-03-07T21:36:09.874Z,9.01
2018-03-07T21:38:38.430Z,9.09
2018-03-07T21:41:06.868Z,9.38
2018-03-07T21:43:35.258Z,9.70
2018-03-07T21:46:03.636Z,9.63
2018-03-07T21:48:32.207Z,9.23
2018-03-07T21:51:00.657Z,9.23
2018-03-07T21:53:29.075Z,9.03
2018-03-07T21:55:57.503Z,9.51
2018-03-07T21:58:25.892Z,8.67
2018-03-07T22:00:54.519Z,9.00
2018-03-07T22:03:22.921Z,9.04
2018-03-07T22:05:51.298Z,8.80
2018-03-07T22:08:19.701Z,9.55
2018-03-07T22:10:48.110Z,9.18
2018-03-07T22:13:16.957Z,9.36
2018-03-07T22:15:45.394Z,9.35
2018-03-07T22:18:13.861Z,9.00
2018-03-07T22:20:42.320Z,8.89
2018-03-07T22:23:10.705Z,8.68
2018-03-07T22:25:39.124Z,7.83
2018-03-07T22:28:07.516Z,8.52
2018-03-07T22:30:35.879Z,8.35
2018-03-07T22:33:04.254Z,8.65
2018-03-07T22:35:32.639Z,8.22
2018-03-07T22:38:03.697Z,8.02
2018-03-07T22:40:39.717Z,7.98
2018-03-07T22:43:09.464Z,8.22
2018-03-07T22:45:37.850Z,8.30
2018-03-07T22:48:06.256Z,7.57
2018-03-07T22:50:34.648Z,8.08
2018-03-07T22:53:03.018Z,8.58
2018-03-07T22:55:31.409Z,8.43
2018-03-07T22:57:59.808Z,7.59
2018-03-07T23:00:33.840Z,7.89
2018-03-07T23:03:02.232Z,8.15
2018-03-07T23:05:30.636Z,7.86
2018-03-07T23:07:59.027Z,8.20
2018-03-07T23:10:27.408Z,7.99
2018-03-07T23:12:56.047Z,8.25
2018-03-07T23:15:24.705Z,8.23
2018-03-07T23:17:53.077Z,7.90
2018-03-07T23:20:21.481Z,8.40
2018-03-07T23:22:50.056Z,8.01
2018-03-07T23:25:18.663Z,7.69
2018-03-07T23:27:47.051Z,7.54
2018-03-07T23:30:15.463Z,7.85
2018-03-07T23:32:43.846Z,9.04
2018-03-07T23:35:12.230Z,7.82
2018-03-07T23:37:40.625Z,8.41
2018-03-07T23:40:09.021Z,8.64
2018-03-07T23:42:37.575Z,7.75
2018-03-07T23:45:06.288Z,8.23
2018-03-07T23:47:34.687Z,7.35
2018-03-07T23:50:03.071Z,7.41
2018-03-07T23:52:31.467Z,7.19
2018-03-07T23:54:59.972Z,7.08
2018-03-07T23:57:28.374Z,7.01
2018-03-07T23:59:56.772Z,8.22
